San Francisco International Airport San Francisco US
ICAO: KSFO
IATA: SFO
Category: Large
Scheduled Services: Yes

Elevation: 13 ft
TransAlt. 18000 ft.

Airport Communications:
NORCAL APP:125.35
ATIS:113.7
AWOS 1:118.05
CLNC DEL:118.2
NORCAL DEP:120.9
GND:121.8
USCG:34.5
TWR:120.5
UNICOM:122.95

KSFO Zoom In..

If you have problems with the map follow the link
https://www.worldairports.se/pages/airport.php?
ICAO=KSFO

Runways:

(A) RW 01L length 7500 ft width 200 ft
---- / hdg 14

(B) RW 01R length 8646 ft width 200 ft
---- / hdg 14

(C) RW 10L length 11870 ft width 200 ft
---- / hdg 104

(D) RW 10R length 11381 ft width 200 ft
---- / hdg 104

(E) RW 19L length 8646 ft width 200 ft
ILS 108.90 / hdg 194

(F) RW 19R length 7500 ft width 200 ft
---- / hdg 194

(G) RW 28L length 11381 ft width 200 ft
ILS 109.55 / hdg 284

(H) RW 28R length 11870 ft width 200 ft
ILS 111.70 / hdg 284

Location; KSFO
Day. 10 / Time. 01.56 Zulu
* Altimeter: 30.19
* Temperature: 13° c. 55.4°f.
* Wind from: 300° Speed 05 kn.
Dewpoint: 08° c.
Visibility: 9 Statute Miles.
Clouds: Few 1300 ft.
Clouds: Broken 2000 ft.

KSFO 100156Z 30005KT 9SM FEW013 BKN020 13/08 A3019 RMK AO2 SLP222 T01280083


Wind From 300°
Speed 05 kn.

 
 
jpsmedia worldairports.se 2019   terms of use